Time;durP1;ratioP1;P1;durP2;ratioP2;P2;SDS_P1;SDS_P2;PMS_P1;PMS_P2;Temp;Humidity;BMP_temperature;BMP_pressure;BME280_temperature;BME280_humidity;BME280_pressure;Samples;Min_cycle;Max_cycle;Signal;HPM_P1;HPM_P2
2022/04/24 04:00:23;;;;;;;14.05;8.38;;;7.70;99.90;;;;;;6030077;23;21338;-80
2022/04/24 04:02:49;;;;;;;14.25;8.25;;;7.70;99.90;;;;;;5014224;28;20382;-80
2022/04/24 04:05:18;;;;;;;14.23;8.07;;;7.60;99.90;;;;;;5014078;28;20065;-81
2022/04/24 04:07:44;;;;;;;15.30;9.35;;;7.60;99.90;;;;;;5013820;28;20042;-82
2022/04/24 04:10:10;;;;;;;14.93;9.27;;;7.60;99.90;;;;;;5014049;28;20038;-81
2022/04/24 04:12:35;;;;;;;12.43;8.00;;;7.60;99.90;;;;;;4978016;28;20469;-79
2022/04/24 04:15:03;;;;;;;13.55;8.98;;;7.60;99.90;;;;;;4994982;28;20042;-80
2022/04/24 04:17:29;;;;;;;12.95;8.00;;;7.50;99.90;;;;;;4993619;28;20038;-81
2022/04/24 04:19:55;;;;;;;14.32;9.50;;;7.50;99.90;;;;;;4977915;28;20109;-80
2022/04/24 04:22:20;;;;;;;14.98;7.97;;;7.50;99.90;;;;;;4993901;28;20050;-80
2022/04/24 04:24:46;;;;;;;14.07;9.30;;;7.50;99.90;;;;;;4995529;28;20137;-80
2022/04/24 04:27:11;;;;;;;13.50;8.75;;;7.50;99.90;;;;;;4993807;28;20042;-80
2022/04/24 04:29:37;;;;;;;13.43;8.10;;;7.50;99.90;;;;;;4977069;28;20595;-81
2022/04/24 04:32:03;;;;;;;12.70;8.23;;;7.50;99.90;;;;;;4993678;28;20088;-79
2022/04/24 04:34:29;;;;;;;15.15;8.27;;;7.50;99.90;;;;;;4994103;28;20042;-80
2022/04/24 04:36:54;;;;;;;13.88;8.23;;;7.50;99.90;;;;;;4993638;28;20042;-80
2022/04/24 04:39:20;;;;;;;12.52;7.93;;;7.50;99.90;;;;;;4993369;28;20045;-82
2022/04/24 04:41:46;;;;;;;13.68;8.20;;;7.50;99.90;;;;;;4994586;28;20038;-78
2022/04/24 04:44:12;;;;;;;12.68;7.93;;;7.50;99.90;;;;;;4994009;28;20042;-83
2022/04/24 04:46:38;;;;;;;13.45;8.02;;;7.50;99.90;;;;;;4993392;28;20038;-80
2022/04/24 04:49:04;;;;;;;11.82;7.88;;;7.50;99.90;;;;;;4993024;28;20046;-82
2022/04/24 04:51:29;;;;;;;12.55;7.88;;;7.50;99.90;;;;;;4994292;28;20038;-79
2022/04/24 04:53:55;;;;;;;14.98;8.23;;;7.50;99.90;;;;;;4992911;28;20073;-80
2022/04/24 04:56:22;;;;;;;14.90;7.85;;;7.50;99.90;;;;;;4992534;28;20047;-82
2022/04/24 04:58:48;;;;;;;14.85;7.72;;;7.50;99.90;;;;;;4992914;28;20042;-81
2022/04/24 05:01:14;;;;;;;13.43;8.35;;;7.50;99.90;;;;;;4992711;28;20417;-80
2022/04/24 05:03:39;;;;;;;14.55;7.88;;;7.50;99.90;;;;;;4993017;28;20050;-79
2022/04/24 05:06:05;;;;;;;15.15;7.82;;;7.60;99.90;;;;;;4993003;28;20125;-81
2022/04/24 05:08:31;;;;;;;12.15;7.65;;;7.60;99.90;;;;;;4992863;28;20125;-82
2022/04/24 05:10:56;;;;;;;11.60;7.63;;;7.60;99.90;;;;;;4992602;28;20057;-81
2022/04/24 05:13:22;;;;;;;12.45;7.80;;;7.60;99.90;;;;;;4994086;28;20034;-79
2022/04/24 05:15:48;;;;;;;14.82;8.25;;;7.60;99.90;;;;;;4992581;28;20046;-81
2022/04/24 05:18:14;;;;;;;14.43;7.80;;;7.60;99.90;;;;;;4992667;28;20050;-81
2022/04/24 05:20:39;;;;;;;13.30;8.32;;;7.70;99.90;;;;;;4993903;28;20046;-81
2022/04/24 05:23:06;;;;;;;16.67;8.85;;;7.70;99.90;;;;;;4994432;28;20038;-81
2022/04/24 05:25:33;;;;;;;13.75;8.35;;;7.70;99.90;;;;;;4992625;28;20086;-81
2022/04/24 05:28:00;;;;;;;13.30;7.32;;;7.70;99.90;;;;;;4992846;28;20144;-80
2022/04/24 05:30:27;;;;;;;16.02;8.13;;;7.80;99.90;;;;;;4992349;28;20125;-79
2022/04/24 05:32:52;;;;;;;12.82;7.95;;;7.80;99.90;;;;;;4994652;28;20080;-81
2022/04/24 05:35:18;;;;;;;12.75;7.93;;;7.90;99.90;;;;;;4993037;28;20459;-81
2022/04/24 05:37:47;;;;;;;12.65;7.72;;;7.90;99.90;;;;;;4993041;28;20046;-81
2022/04/24 05:40:14;;;;;;;11.48;7.40;;;7.90;99.90;;;;;;4993051;28;20117;-79
2022/04/24 05:42:53;;;;;;;12.55;7.45;;;8.00;99.90;;;;;;4992834;28;20096;-80
2022/04/24 05:45:22;;;;;;;12.20;7.13;;;8.00;99.90;;;;;;4994516;28;20112;-80
2022/04/24 05:47:48;;;;;;;11.00;7.20;;;8.10;99.90;;;;;;4992827;28;20046;-81
2022/04/24 05:50:14;;;;;;;10.05;6.75;;;8.10;99.90;;;;;;4993066;28;20457;-81
2022/04/24 05:52:40;;;;;;;12.88;7.18;;;8.20;99.90;;;;;;4992787;28;20046;-80
2022/04/24 05:55:07;;;;;;;11.48;7.00;;;8.30;99.90;;;;;;4992860;28;20030;-80
2022/04/24 05:57:32;;;;;;;11.13;6.63;;;8.30;99.90;;;;;;4997048;28;20494;-80
2022/04/24 05:59:58;;;;;;;10.25;6.72;;;8.40;99.90;;;;;;4981234;28;20141;-82
2022/04/24 06:02:24;;;;;;;12.05;7.13;;;8.50;99.90;;;;;;4996141;28;20046;-80
2022/04/24 06:04:50;;;;;;;14.20;7.05;;;8.60;99.90;;;;;;4980157;28;20046;-82
2022/04/24 06:07:16;;;;;;;11.77;6.85;;;8.60;99.90;;;;;;4996183;28;20049;-80
2022/04/24 06:09:41;;;;;;;13.05;6.97;;;8.70;99.90;;;;;;4980122;28;20046;-82
2022/04/24 06:12:08;;;;;;;12.18;6.50;;;8.80;99.90;;;;;;4996087;28;20041;-79
2022/04/24 06:14:33;;;;;;;16.08;7.20;;;8.80;99.90;;;;;;4997377;28;20034;-81
2022/04/24 06:17:00;;;;;;;15.00;7.40;;;8.90;99.90;;;;;;4997783;28;20043;-80
2022/04/24 06:19:26;;;;;;;11.75;6.85;;;9.00;99.90;;;;;;4996211;28;20047;-81
2022/04/24 06:21:52;;;;;;;14.50;7.15;;;9.00;99.90;;;;;;4995805;28;20486;-82
2022/04/24 06:24:18;;;;;;;10.38;6.70;;;9.10;99.90;;;;;;4995811;28;20038;-81
2022/04/24 06:26:44;;;;;;;10.30;6.72;;;9.20;99.90;;;;;;4995750;28;20046;-81
2022/04/24 06:29:11;;;;;;;11.82;6.82;;;9.20;99.90;;;;;;4979481;28;20085;-80
2022/04/24 06:31:36;;;;;;;9.93;6.93;;;9.20;99.90;;;;;;4996102;28;20103;-80
2022/04/24 06:34:02;;;;;;;12.13;7.65;;;9.20;99.90;;;;;;4995675;28;20125;-80
2022/04/24 06:36:28;;;;;;;12.85;6.93;;;9.20;99.90;;;;;;4979851;28;20491;-82
2022/04/24 06:38:53;;;;;;;13.43;6.80;;;9.20;99.90;;;;;;4995682;28;20054;-80
2022/04/24 06:41:19;;;;;;;12.52;6.97;;;9.20;99.90;;;;;;4996050;28;20089;-81
2022/04/24 06:43:44;;;;;;;15.13;7.57;;;9.30;99.90;;;;;;4996026;28;20049;-81
2022/04/24 06:46:10;;;;;;;14.07;7.63;;;9.30;99.90;;;;;;4995833;28;20042;-81
2022/04/24 06:48:36;;;;;;;12.82;7.35;;;9.30;99.90;;;;;;4979259;28;20042;-81
2022/04/24 06:51:02;;;;;;;13.80;7.20;;;9.30;99.90;;;;;;4996460;28;20043;-81
2022/04/24 06:53:28;;;;;;;11.10;7.00;;;9.40;99.90;;;;;;4997076;28;20445;-81
2022/04/24 06:55:54;;;;;;;13.20;6.47;;;9.40;99.90;;;;;;4995377;28;20486;-81
2022/04/24 06:58:20;;;;;;;11.93;6.43;;;9.50;99.90;;;;;;4980216;28;20053;-80
2022/04/24 07:00:47;;;;;;;11.38;6.60;;;9.50;99.90;;;;;;4995298;28;20474;-79
2022/04/24 07:03:18;;;;;;;12.40;7.18;;;9.60;99.90;;;;;;4995385;28;20053;-82
2022/04/24 07:05:45;;;;;;;13.32;7.25;;;9.80;99.90;;;;;;5002952;28;20046;-81
2022/04/24 07:08:11;;;;;;;10.95;6.57;;;9.90;99.90;;;;;;4994260;28;20030;-78
2022/04/24 07:10:37;;;;;;;10.38;6.95;;;10.00;99.90;;;;;;5004743;28;20069;-79
2022/04/24 07:13:04;;;;;;;11.18;7.10;;;10.10;99.90;;;;;;4999117;28;20042;-81
2022/04/24 07:15:31;;;;;;;10.98;6.57;;;10.20;99.90;;;;;;4997474;28;20042;-82
2022/04/24 07:17:58;;;;;;;11.38;6.97;;;10.30;99.90;;;;;;4979670;28;20069;-82
2022/04/24 07:20:23;;;;;;;12.23;6.60;;;10.40;99.90;;;;;;4996398;28;20057;-81
2022/04/24 07:23:03;;;;;;;13.73;6.00;;;10.40;99.90;;;;;;4996383;28;20042;-81
2022/04/24 07:25:33;;;;;;;10.13;6.00;;;10.50;99.90;;;;;;4995614;28;20058;-82
2022/04/24 07:27:59;;;;;;;10.00;6.43;;;10.60;99.90;;;;;;4997237;28;20120;-80
2022/04/24 07:30:25;;;;;;;10.88;6.38;;;10.70;99.90;;;;;;4995091;28;20113;-83
2022/04/24 07:32:55;;;;;;;10.90;6.57;;;10.70;99.90;;;;;;4996812;28;20042;-81
2022/04/24 07:35:23;;;;;;;10.68;6.40;;;10.80;99.90;;;;;;4996810;28;20034;-81
2022/04/24 07:37:49;;;;;;;11.57;6.20;;;10.90;99.90;;;;;;4994715;28;20482;-82
2022/04/24 07:40:17;;;;;;;9.32;6.18;;;10.90;99.90;;;;;;4978494;28;20042;-80
2022/04/24 07:43:00;;;;;;;10.80;6.13;;;11.00;99.90;;;;;;4994685;28;20050;-80
2022/04/24 07:45:30;;;;;;;13.85;6.05;;;11.00;99.90;;;;;;4978137;28;20038;-81
2022/04/24 07:47:57;;;;;;;10.68;6.32;;;11.10;99.90;;;;;;4994647;28;20042;-78
2022/04/24 07:50:34;;;;;;;12.75;5.60;;;11.20;99.90;;;;;;4994150;28;20050;-80
2022/04/24 07:53:01;;;;;;;10.60;5.50;;;11.20;99.90;;;;;;4994609;28;20050;-80
2022/04/24 07:55:26;;;;;;;11.27;4.53;;;11.30;99.90;;;;;;4995982;28;20048;-81
2022/04/24 07:57:54;;;;;;;7.97;4.55;;;11.40;99.90;;;;;;4994421;28;20476;-81
2022/04/24 08:00:23;;;;;;;10.25;5.30;;;11.50;99.90;;;;;;4994396;28;20042;-81
2022/04/24 08:02:56;;;;;;;9.27;4.40;;;11.50;99.90;;;;;;4994202;28;20100;-80
2022/04/24 08:05:46;;;;;;;9.80;4.40;;;11.60;99.90;;;;;;4994309;28;20042;-81
2022/04/24 08:08:17;;;;;;;8.00;4.00;;;11.70;99.90;;;;;;4993430;28;20498;-81
2022/04/24 08:10:47;;;;;;;6.50;4.38;;;11.80;99.90;;;;;;4994165;28;20439;-82
2022/04/24 08:13:13;;;;;;;10.75;4.03;;;11.80;99.90;;;;;;4995644;28;20038;-81
2022/04/24 08:15:40;;;;;;;6.88;3.58;;;11.90;99.90;;;;;;4994142;28;20042;-81
2022/04/24 08:18:06;;;;;;;6.90;3.50;;;12.00;99.90;;;;;;4995286;28;20438;-81
2022/04/24 08:20:32;;;;;;;5.72;3.28;;;12.10;99.90;;;;;;4994193;28;20089;-82
2022/04/24 08:23:02;;;;;;;6.05;2.78;;;12.20;99.90;;;;;;4994267;28;20490;-82
2022/04/24 08:25:29;;;;;;;6.00;3.30;;;12.30;99.90;;;;;;4978109;28;20046;-82
2022/04/24 08:27:56;;;;;;;5.97;2.70;;;12.40;99.90;;;;;;4994119;28;20121;-81
2022/04/24 08:30:26;;;;;;;5.25;2.88;;;12.80;99.90;;;;;;4993861;28;20042;-81
2022/04/24 08:32:52;;;;;;;4.95;2.47;;;13.40;99.90;;;;;;4977419;28;20489;-82
2022/04/24 08:35:19;;;;;;;6.22;2.70;;;14.10;99.90;;;;;;4993768;28;20113;-81
2022/04/24 08:37:46;;;;;;;5.50;2.40;;;14.60;99.90;;;;;;4993510;28;20039;-82
2022/04/24 08:40:13;;;;;;;5.13;2.13;;;14.80;99.90;;;;;;4993619;28;20045;-81
2022/04/24 08:42:40;;;;;;;5.25;2.67;;;15.10;99.90;;;;;;4994070;28;20038;-81
2022/04/24 08:45:10;;;;;;;5.28;2.63;;;15.30;99.90;;;;;;4993492;28;20564;-82
2022/04/24 08:47:36;;;;;;;5.75;2.40;;;15.40;99.90;;;;;;4993594;28;20050;-81
2022/04/24 08:50:02;;;;;;;3.95;2.30;;;15.30;99.90;;;;;;4993586;28;20133;-82
2022/04/24 08:52:30;;;;;;;6.28;2.47;;;15.30;99.90;;;;;;4993314;28;20100;-79
2022/04/24 08:54:57;;;;;;;4.18;2.30;;;15.30;99.90;;;;;;4993693;28;20065;-80
2022/04/24 08:57:26;;;;;;;7.03;2.22;;;15.50;99.90;;;;;;4995212;28;20049;-81
2022/04/24 08:59:55;;;;;;;4.38;2.30;;;16.00;99.90;;;;;;4993172;28;20043;-79
2022/04/24 09:02:21;;;;;;;4.43;1.88;;;16.60;99.90;;;;;;4994526;28;20092;-80
2022/04/24 09:04:47;;;;;;;8.23;2.28;;;16.80;99.90;;;;;;4993196;28;20077;-82
2022/04/24 09:07:17;;;;;;;6.10;2.47;;;17.00;99.60;;;;;;4994423;28;20045;-81
2022/04/24 09:09:51;;;;;;;5.32;2.30;;;17.00;99.20;;;;;;4993285;28;20117;-80
2022/04/24 09:12:18;;;;;;;4.13;2.30;;;17.00;98.40;;;;;;4976994;28;20045;-81
2022/04/24 09:14:52;;;;;;;4.97;2.00;;;17.00;98.50;;;;;;4992718;28;20093;-82
2022/04/24 09:17:26;;;;;;;3.78;2.42;;;17.10;98.10;;;;;;4992896;28;20038;-82
2022/04/24 09:19:53;;;;;;;5.00;2.28;;;17.30;97.80;;;;;;4993041;28;20054;-81
2022/04/24 09:22:19;;;;;;;4.50;2.63;;;17.50;98.80;;;;;;4993225;28;20073;-81
2022/04/24 09:24:52;;;;;;;5.00;2.65;;;17.60;98.50;;;;;;4977273;28;20148;-79
2022/04/24 09:27:33;;;;;;;4.80;2.50;;;17.40;98.10;;;;;;4993316;28;20058;-81
2022/04/24 09:30:15;;;;;;;5.43;2.30;;;17.20;98.10;;;;;;4992993;28;20046;-81
2022/04/24 09:32:53;;;;;;;4.70;2.30;;;17.10;98.30;;;;;;4993644;28;20058;-82
2022/04/24 09:35:32;;;;;;;6.38;2.58;;;17.00;98.90;;;;;;4992958;28;20100;-80
2022/04/24 09:38:17;;;;;;;6.65;2.80;;;17.10;98.90;;;;;;4993164;28;20042;-81
2022/04/24 09:40:48;;;;;;;6.57;2.88;;;17.10;98.50;;;;;;4993380;28;20042;-82
2022/04/24 09:43:19;;;;;;;4.47;2.80;;;17.20;98.40;;;;;;4993138;28;20050;-81
2022/04/24 09:45:53;;;;;;;6.40;2.90;;;17.50;97.20;;;;;;4992550;28;20050;-82
2022/04/24 09:48:21;;;;;;;4.18;2.30;;;17.90;97.50;;;;;;4976596;28;20101;-81
2022/04/24 09:50:50;;;;;;;4.22;2.47;;;18.30;96.60;;;;;;4992524;28;20081;-80
2022/04/24 09:53:19;;;;;;;5.03;2.50;;;18.40;94.80;;;;;;4992774;28;20090;-79
2022/04/24 09:55:47;;;;;;;5.75;2.38;;;18.60;95.00;;;;;;4992610;28;20042;-79
2022/04/24 09:58:13;;;;;;;4.88;2.55;;;18.70;94.30;;;;;;4976290;28;20462;-80
2022/04/24 10:00:39;;;;;;;7.10;2.55;;;18.70;94.30;;;;;;4994153;28;20034;-81
2022/04/24 10:03:05;;;;;;;4.50;2.35;;;18.70;93.70;;;;;;4992517;28;20065;-80
2022/04/24 10:05:31;;;;;;;5.47;2.42;;;18.80;93.60;;;;;;4993292;28;20117;-81
2022/04/24 10:07:58;;;;;;;5.50;2.50;;;18.80;92.80;;;;;;4992289;28;20042;-81
2022/04/24 10:10:25;;;;;;;4.85;2.78;;;18.80;92.50;;;;;;4992607;28;20061;-80
2022/04/24 10:12:51;;;;;;;5.82;2.58;;;18.80;91.70;;;;;;4992576;28;20039;-81
2022/04/24 10:15:20;;;;;;;5.15;2.30;;;18.80;92.10;;;;;;4993968;28;20034;-82
2022/04/24 10:17:55;;;;;;;4.10;2.53;;;18.90;91.80;;;;;;4992615;28;20042;-82
2022/04/24 10:20:29;;;;;;;4.53;2.30;;;18.90;91.10;;;;;;4991996;28;20419;-82
2022/04/24 10:22:57;;;;;;;2.97;2.00;;;18.90;90.30;;;;;;4992705;28;20094;-80
2022/04/24 10:25:39;;;;;;;4.38;2.30;;;19.00;90.30;;;;;;4993497;28;20050;-80
2022/04/24 10:28:18;;;;;;;5.45;2.25;;;19.00;89.50;;;;;;4992488;28;20097;-80
2022/04/24 10:31:01;;;;;;;3.65;2.00;;;19.00;88.70;;;;;;4992045;28;20418;-80
2022/04/24 10:33:32;;;;;;;3.90;2.33;;;19.00;87.90;;;;;;4975707;28;20462;-80
2022/04/24 10:36:14;;;;;;;2.97;1.85;;;19.00;87.90;;;;;;4992258;28;20124;-80
2022/04/24 10:38:51;;;;;;;3.30;1.70;;;19.00;85.10;;;;;;4992498;28;20055;-81
2022/04/24 10:41:23;;;;;;;4.00;2.20;;;19.00;85.70;;;;;;4992457;28;20057;-80
2022/04/24 10:43:54;;;;;;;5.10;1.90;;;19.10;83.90;;;;;;4978627;28;20038;-81
2022/04/24 10:46:30;;;;;;;4.03;2.05;;;19.20;82.20;;;;;;4979894;28;20057;-81
2022/04/24 10:49:10;;;;;;;5.68;2.03;;;19.20;81.60;;;;;;4995479;28;20044;-81
2022/04/24 10:51:37;;;;;;;3.05;1.90;;;19.20;80.20;;;;;;4995428;28;20451;-83
2022/04/24 10:54:08;;;;;;;3.10;1.85;;;19.10;81.60;;;;;;4995277;28;20487;-80
2022/04/24 10:56:35;;;;;;;4.30;2.15;;;19.10;80.60;;;;;;4995175;28;20046;-80
2022/04/24 10:59:13;;;;;;;3.70;2.17;;;19.20;80.70;;;;;;4995316;28;20050;-80
2022/04/24 11:01:43;;;;;;;4.43;1.80;;;19.30;80.20;;;;;;4994931;28;20038;-79
2022/04/24 11:04:11;;;;;;;3.92;2.13;;;19.40;78.50;;;;;;4995209;28;20483;-81
2022/04/24 11:06:37;;;;;;;5.20;2.40;;;19.60;78.00;;;;;;4995121;28;20053;-80
2022/04/24 11:09:13;;;;;;;7.25;2.10;;;19.70;78.30;;;;;;4995442;28;20042;-79
2022/04/24 11:11:49;;;;;;;5.10;2.30;;;19.80;78.10;;;;;;4995605;28;20061;-81
2022/04/24 11:14:25;;;;;;;4.57;2.10;;;20.00;78.20;;;;;;4995639;28;20135;-80
2022/04/24 11:16:53;;;;;;;4.93;2.30;;;19.70;76.80;;;;;;4997309;28;20048;-81
2022/04/24 11:19:33;;;;;;;5.75;2.00;;;19.50;77.30;;;;;;4996883;28;20046;-82
2022/04/24 11:22:01;;;;;;;4.15;2.00;;;19.70;76.60;;;;;;4995158;28;20045;-81
2022/04/24 11:24:29;;;;;;;7.18;1.80;;;19.60;76.00;;;;;;4996978;28;20434;-81
2022/04/24 11:26:56;;;;;;;5.25;2.28;;;19.30;74.00;;;;;;4994882;28;20038;-80
2022/04/24 11:29:21;;;;;;;6.30;1.73;;;19.10;74.30;;;;;;4995312;28;20478;-80
2022/04/24 11:31:52;;;;;;;4.20;1.77;;;19.20;74.80;;;;;;4994986;28;20038;-82
2022/04/24 11:34:22;;;;;;;3.20;1.55;;;19.50;74.70;;;;;;4995034;28;20038;-81
2022/04/24 11:36:49;;;;;;;3.50;2.10;;;19.50;74.20;;;;;;4996421;28;20073;-80
2022/04/24 11:39:17;;;;;;;4.80;1.90;;;19.10;73.40;;;;;;4994764;28;20074;-82
2022/04/24 11:41:43;;;;;;;4.28;1.83;;;19.10;73.70;;;;;;4995736;28;20042;-81
2022/04/24 11:52:36;;;;;;;6.47;1.77;;;18.30;73.60;;;;;;4994985;28;20042;-81
2022/04/24 11:55:05;;;;;;;2.88;1.48;;;18.50;73.50;;;;;;4994289;28;20406;-81
2022/04/24 11:57:35;;;;;;;3.97;1.85;;;19.00;72.90;;;;;;4994659;28;20513;-81
2022/04/24 12:00:03;;;;;;;3.38;1.80;;;19.30;72.60;;;;;;4978779;28;20371;-83
2022/04/24 12:02:29;;;;;;;3.40;1.40;;;19.00;71.30;;;;;;4994583;28;20126;-81
2022/04/24 12:04:56;;;;;;;5.88;2.03;;;18.70;71.60;;;;;;4978550;28;20042;-81
2022/04/24 12:07:32;;;;;;;3.28;1.90;;;18.30;71.80;;;;;;4994820;28;20049;-81
2022/04/24 12:10:09;;;;;;;4.55;2.05;;;18.20;72.80;;;;;;4996156;28;20358;-82
2022/04/24 12:12:48;;;;;;;3.50;1.70;;;18.80;74.30;;;;;;4994152;28;20135;-81
2022/04/24 12:15:16;;;;;;;3.92;1.58;;;19.00;73.40;;;;;;4994176;28;20055;-81
2022/04/24 12:17:55;;;;;;;4.03;1.85;;;18.80;73.20;;;;;;4994223;28;20133;-81
2022/04/24 12:20:33;;;;;;;4.18;1.75;;;18.60;73.00;;;;;;4993824;28;20038;-81
2022/04/24 12:23:11;;;;;;;4.60;1.70;;;18.30;72.40;;;;;;4993846;28;20046;-83
2022/04/24 12:25:53;;;;;;;3.92;2.15;;;18.40;72.90;;;;;;4993940;28;20046;-82
2022/04/24 12:28:29;;;;;;;7.18;2.15;;;18.90;72.10;;;;;;4993772;28;20046;-82
2022/04/24 12:30:58;;;;;;;4.50;1.85;;;19.50;74.00;;;;;;4993504;28;20061;-81
2022/04/24 12:33:24;;;;;;;6.85;2.00;;;20.00;73.90;;;;;;4993723;28;20155;-80
2022/04/24 12:35:50;;;;;;;7.57;2.47;;;20.30;73.90;;;;;;4994861;28;20074;-81
2022/04/24 12:38:20;;;;;;;3.58;1.90;;;20.50;72.50;;;;;;4977362;28;20050;-81
2022/04/24 12:40:57;;;;;;;5.45;2.10;;;20.20;71.60;;;;;;4993797;28;20046;-81
2022/04/24 12:43:25;;;;;;;3.92;1.80;;;20.30;71.80;;;;;;4999052;28;20061;-81
2022/04/24 12:45:51;;;;;;;5.03;2.40;;;20.40;72.40;;;;;;4995825;28;20135;-80
2022/04/24 12:48:16;;;;;;;5.80;2.42;;;20.70;72.20;;;;;;4994361;28;20038;-82
2022/04/24 12:50:42;;;;;;;4.22;2.20;;;20.80;71.60;;;;;;4994409;28;20176;-79
2022/04/24 12:53:08;;;;;;;3.42;2.10;;;20.70;71.50;;;;;;5000982;28;20053;-80
2022/04/24 12:55:33;;;;;;;4.97;2.40;;;20.80;72.90;;;;;;4993187;28;20038;-79
2022/04/24 12:57:59;;;;;;;4.50;2.80;;;21.10;73.80;;;;;;5001420;28;20050;-83
2022/04/24 13:00:25;;;;;;;4.80;2.50;;;21.10;73.00;;;;;;4994002;28;20085;-83
2022/04/24 13:02:51;;;;;;;5.28;3.05;;;20.50;72.20;;;;;;4994270;28;20096;-83
2022/04/24 13:05:17;;;;;;;3.92;2.80;;;20.30;72.90;;;;;;4976728;28;20558;-82
2022/04/24 13:07:43;;;;;;;4.80;2.50;;;20.30;74.40;;;;;;4994698;28;20121;-81
2022/04/24 13:10:11;;;;;;;7.38;3.50;;;20.40;75.50;;;;;;4993249;28;20050;-81
2022/04/24 13:12:36;;;;;;;5.15;3.38;;;20.30;75.20;;;;;;4993268;28;20086;-81
2022/04/24 13:15:02;;;;;;;7.43;3.38;;;20.00;75.90;;;;;;4993961;28;20074;-83
2022/04/24 13:20:13;;;;;;;7.65;5.82;;;20.40;77.20;;;;;;4994238;28;20046;-81
2022/04/24 13:22:40;;;;;;;9.35;6.60;;;20.20;76.50;;;;;;4976938;28;20045;-83
2022/04/24 13:25:05;;;;;;;8.30;5.63;;;20.40;75.70;;;;;;4977048;28;20508;-80
2022/04/24 13:27:32;;;;;;;10.38;3.35;;;20.80;76.80;;;;;;4994460;28;20125;-82
2022/04/24 13:29:57;;;;;;;5.07;3.10;;;21.10;75.70;;;;;;4993311;28;20212;-81
2022/04/24 13:32:25;;;;;;;6.22;3.70;;;21.20;75.20;;;;;;4992952;28;20100;-83
2022/04/24 13:34:51;;;;;;;7.38;4.10;;;21.00;75.20;;;;;;4993481;28;20121;-82
2022/04/24 13:40:00;;;;;;;5.05;3.20;;;21.10;74.70;;;;;;4993420;28;20469;-81
2022/04/24 13:42:26;;;;;;;8.05;3.50;;;21.20;75.10;;;;;;4993022;28;20108;-81
2022/04/24 13:44:51;;;;;;;4.63;2.70;;;21.50;75.00;;;;;;4993037;28;20069;-83
2022/04/24 13:47:20;;;;;;;8.23;3.47;;;21.60;74.30;;;;;;4993206;28;20046;-84
2022/04/24 13:49:46;;;;;;;6.32;2.92;;;21.40;73.80;;;;;;4976702;28;20038;-82
2022/04/24 13:52:12;;;;;;;5.63;3.40;;;21.40;73.50;;;;;;4992551;28;20042;-83
2022/04/24 13:54:39;;;;;;;5.53;3.10;;;21.40;71.90;;;;;;4992813;28;20046;-83
2022/04/24 13:57:05;;;;;;;5.50;3.17;;;21.60;72.70;;;;;;4992627;28;20379;-82
2022/04/24 13:59:30;;;;;;;6.88;3.47;;;21.60;74.80;;;;;;4993359;28;20042;-80
2022/04/24 14:01:56;;;;;;;5.95;2.75;;;21.70;75.30;;;;;;4976175;28;20049;-82
2022/04/24 14:04:22;;;;;;;4.90;2.90;;;21.90;75.80;;;;;;4992752;28;20034;-83
2022/04/24 14:06:48;;;;;;;7.05;3.17;;;21.70;75.70;;;;;;4992318;28;20046;-82
2022/04/24 14:09:14;;;;;;;4.95;2.97;;;21.10;75.20;;;;;;4976376;28;20074;-83
2022/04/24 14:11:42;;;;;;;7.93;3.00;;;20.80;75.70;;;;;;4992373;28;20502;-81
2022/04/24 14:14:08;;;;;;;5.65;3.15;;;20.90;76.90;;;;;;4976280;28;20046;-83
2022/04/24 14:16:34;;;;;;;5.60;2.83;;;21.10;77.30;;;;;;4993239;28;20046;-83
2022/04/24 14:19:00;;;;;;;4.65;2.83;;;21.50;76.50;;;;;;4996490;28;20057;-82
2022/04/24 14:21:25;;;;;;;6.85;2.58;;;21.70;75.30;;;;;;4996433;28;20478;-82
2022/04/24 14:23:51;;;;;;;5.45;2.90;;;21.80;74.50;;;;;;4996553;28;20041;-83
2022/04/24 14:26:16;;;;;;;4.20;2.45;;;21.70;73.00;;;;;;4998158;28;20043;-81
2022/04/24 14:28:42;;;;;;;4.63;2.65;;;21.30;72.70;;;;;;4996590;28;20042;-83
2022/04/24 14:31:09;;;;;;;6.20;2.88;;;21.00;73.20;;;;;;4996371;28;20055;-83
2022/04/24 14:33:35;;;;;;;7.25;2.97;;;21.10;73.50;;;;;;4996103;28;20077;-82
2022/04/24 14:36:01;;;;;;;3.95;2.65;;;21.30;73.20;;;;;;4995730;28;20077;-83
2022/04/24 14:38:28;;;;;;;5.40;2.60;;;21.70;74.50;;;;;;4997061;28;20039;-82
2022/04/24 14:40:54;;;;;;;5.63;2.60;;;21.60;74.40;;;;;;4997352;28;20046;-81
2022/04/24 14:43:20;;;;;;;4.60;2.65;;;21.50;73.40;;;;;;4995835;28;20402;-83
2022/04/24 14:56:43;;;;;;;5.65;2.80;;;21.30;73.30;;;;;;4995580;28;20101;-80
2022/04/24 14:59:09;;;;;;;7.75;2.92;;;21.50;73.90;;;;;;4995265;28;20046;-81
2022/04/24 15:01:35;;;;;;;3.78;2.70;;;21.60;74.00;;;;;;4995363;28;20034;-83
2022/04/24 15:04:00;;;;;;;8.68;3.95;;;21.40;74.10;;;;;;4979337;28;20475;-82
2022/04/24 15:06:26;;;;;;;5.68;2.70;;;21.30;73.40;;;;;;4995077;28;20447;-83
2022/04/24 15:08:52;;;;;;;6.82;2.83;;;21.40;73.80;;;;;;4995362;28;20049;-82
2022/04/24 15:11:18;;;;;;;7.15;2.88;;;21.30;74.60;;;;;;4995437;28;20046;-82
2022/04/24 15:13:44;;;;;;;7.53;2.80;;;21.30;74.00;;;;;;4995093;28;20046;-82
2022/04/24 15:16:10;;;;;;;6.97;2.70;;;21.30;74.40;;;;;;4995106;28;20038;-83
2022/04/24 15:18:36;;;;;;;5.15;2.97;;;21.40;74.10;;;;;;4979148;28;20046;-82
2022/04/24 15:21:01;;;;;;;5.85;3.13;;;21.20;74.20;;;;;;4995596;28;20041;-82
2022/04/24 15:23:28;;;;;;;7.45;2.88;;;21.10;74.40;;;;;;4995434;28;20034;-81
2022/04/24 15:25:54;;;;;;;7.47;3.00;;;21.00;74.70;;;;;;4995500;28;20056;-81
2022/04/24 15:28:20;;;;;;;8.65;3.05;;;20.80;74.70;;;;;;4978239;28;20038;-83
2022/04/24 15:30:45;;;;;;;8.13;3.08;;;20.70;75.20;;;;;;4995494;28;20065;-81
2022/04/24 15:33:11;;;;;;;5.65;2.80;;;20.70;75.60;;;;;;4995526;28;20053;-82
2022/04/24 15:35:38;;;;;;;7.32;3.13;;;20.70;75.90;;;;;;4996642;28;20081;-82
2022/04/24 15:38:03;;;;;;;8.70;3.10;;;20.70;76.00;;;;;;4995082;28;20065;-81
2022/04/24 15:40:29;;;;;;;7.50;3.58;;;20.70;75.90;;;;;;4996682;28;20035;-82
2022/04/24 15:42:55;;;;;;;6.75;2.95;;;20.40;75.60;;;;;;4995342;28;20038;-80
2022/04/24 15:45:22;;;;;;;5.40;3.00;;;20.40;75.80;;;;;;4996645;28;20173;-81
2022/04/24 15:47:49;;;;;;;8.13;3.10;;;20.30;76.80;;;;;;4995385;28;20380;-81
2022/04/24 15:50:26;;;;;;;5.25;2.80;;;20.20;76.70;;;;;;4995821;28;20034;-82
2022/04/24 15:52:52;;;;;;;7.55;3.10;;;19.90;76.80;;;;;;4994717;28;20061;-81
2022/04/24 15:55:19;;;;;;;7.22;2.72;;;19.90;76.80;;;;;;4995575;28;20042;-80
2022/04/24 15:57:48;;;;;;;5.80;3.10;;;19.90;77.20;;;;;;4994346;28;20483;-83
2022/04/24 16:00:15;;;;;;;7.22;3.05;;;19.80;77.70;;;;;;4994506;28;20046;-81
2022/04/24 16:02:41;;;;;;;7.45;3.13;;;19.90;77.90;;;;;;4994819;28;20513;-81
2022/04/24 16:05:11;;;;;;;7.30;3.08;;;19.90;78.60;;;;;;4995056;28;20128;-82
2022/04/24 16:07:39;;;;;;;5.63;3.10;;;20.10;78.30;;;;;;4994405;28;20042;-83
2022/04/24 16:10:05;;;;;;;4.45;2.92;;;20.10;78.60;;;;;;4995896;28;20054;-79
2022/04/24 16:12:31;;;;;;;8.55;2.95;;;20.00;78.30;;;;;;4994419;28;20129;-83
2022/04/24 16:14:57;;;;;;;7.70;3.03;;;19.90;78.20;;;;;;4994155;28;20141;-83
2022/04/24 16:17:23;;;;;;;7.75;3.20;;;19.70;79.20;;;;;;4994555;28;20042;-83
2022/04/24 16:19:48;;;;;;;6.60;2.85;;;19.70;79.30;;;;;;4994335;28;20053;-81
2022/04/24 16:22:14;;;;;;;7.50;3.05;;;19.70;78.90;;;;;;4995840;28;20053;-82
2022/04/24 16:24:40;;;;;;;7.20;3.05;;;19.50;78.40;;;;;;4994344;28;20144;-80
2022/04/24 16:27:05;;;;;;;7.32;3.17;;;19.50;78.40;;;;;;4994246;28;20046;-83
2022/04/24 16:32:15;;;;;;;6.68;2.85;;;19.10;77.90;;;;;;4995346;28;20506;-83
2022/04/24 16:34:41;;;;;;;5.65;2.85;;;18.90;78.40;;;;;;4995644;28;20073;-81
2022/04/24 16:37:07;;;;;;;6.85;2.85;;;18.70;79.30;;;;;;4993610;28;20486;-80
2022/04/24 16:39:33;;;;;;;7.57;3.00;;;18.70;79.80;;;;;;4994874;28;20113;-82
2022/04/24 16:41:58;;;;;;;5.72;2.83;;;18.80;79.90;;;;;;4992873;28;20422;-82
2022/04/24 16:44:26;;;;;;;6.80;2.78;;;18.70;80.50;;;;;;4993676;28;20049;-80
2022/04/24 16:46:53;;;;;;;5.82;3.00;;;18.60;80.90;;;;;;4993248;28;20105;-82
2022/04/24 16:49:19;;;;;;;6.80;3.13;;;18.60;81.00;;;;;;4994330;28;20375;-82
2022/04/24 16:59:58;;;;;;;5.85;2.55;;;18.00;82.20;;;;;;4993166;28;20471;-82
2022/04/24 17:02:23;;;;;;;5.88;2.88;;;17.90;81.70;;;;;;4994076;28;20092;-83
2022/04/24 17:04:49;;;;;;;5.93;3.10;;;17.80;81.70;;;;;;4993166;28;20078;-80
2022/04/24 17:07:19;;;;;;;7.07;2.25;;;17.70;81.60;;;;;;4993125;28;20054;-83
2022/04/24 17:09:44;;;;;;;6.38;2.45;;;17.70;81.90;;;;;;4993200;28;20050;-84
2022/04/24 17:12:10;;;;;;;7.93;2.88;;;17.70;82.20;;;;;;4993097;28;20042;-83
2022/04/24 17:14:36;;;;;;;6.00;2.78;;;18.00;82.10;;;;;;4993286;28;20433;-85
2022/04/24 17:17:01;;;;;;;6.63;2.80;;;18.20;81.50;;;;;;4992970;28;20046;-80
2022/04/24 17:19:27;;;;;;;7.90;3.17;;;18.10;81.50;;;;;;4976370;28;20398;-81
2022/04/24 17:21:52;;;;;;;7.28;3.08;;;18.10;81.40;;;;;;4992504;28;20038;-80
2022/04/24 17:24:18;;;;;;;6.18;2.72;;;18.10;81.30;;;;;;4992354;28;20467;-80